Terminal Aerodrome Forecast
Issued by NWS

Home | Current Version | Previous Version | Text Only | Print | Product List | Glossary On
Versions: 1 2 3 4 5 6 7 8 9 10 11 12 13 14 15 16 17 18 19
000
FTUS46 KMFR 252343
TAFLMT
TAF
KLMT 252343Z 2600/2624 22012KT P6SM VCSH OVC035
     FM260900 23008KT 6SM -RA SCT025 OVC035
     FM261600 27015G25KT 6SM -RA FEW005 SCT007 OVC015
     FM262000 29020G30KT P6SM -SHRA SCT015 BKN050=

USA.gov is the U.S. government's official web portal to all federal, state and local government web resources and services.